Weather at L'Erée Aerodrome [CLOSED]

Public forecast

Using degrees Celsius for public forecast. Weather courtesy of forecast.io.

Closest aviation weather report (METAR) to L'Erée Aerodrome

Closest report is Guernsey Airport, 2.2 nm (4.1 km) SE. Retrieved 2021/09/21 13:20 UTC (12 minutes ago):

EGJB 211320Z 01007KT 350V050 9999 FEW018 18/14 Q1031

Closest aviation forecast (TAF) to L'Erée Aerodrome

Forecast is more than 12 hours old.

Closest forecast is Lannion-Côte de Granit Airport, 53.1 nm (98.4 km) SW. Retrieved 2019/05/15 19:06 UTC (2 years ago):

TAF LFRO 151936Z 1519/1612 CNL